createdAt,value
2023-05-07T12:49:19.888Z,98833.65
2023-05-07T12:51:47.652Z,98837.77
2023-05-07T12:55:45.575Z,98839.35
2023-05-07T12:58:22.422Z,98830.13
2023-05-07T13:00:51.283Z,98835.69
2023-05-07T13:03:26.430Z,98840.53
2023-05-07T13:05:53.983Z,98843.45
2023-05-07T13:08:37.966Z,98843.34
2023-05-07T13:11:05.651Z,98849.34
2023-05-07T13:13:33.608Z,98851.30
2023-05-07T13:16:01.121Z,98855.64
2023-05-07T13:18:28.777Z,98854.20
2023-05-07T13:20:55.694Z,98852.00
2023-05-07T13:23:22.334Z,98853.23
2023-05-07T13:25:50.135Z,98850.10
2023-05-07T13:28:17.196Z,98846.27
2023-05-07T13:30:43.690Z,98849.67
2023-05-07T13:33:10.824Z,98846.07
2023-05-07T13:35:37.388Z,98846.49
2023-05-07T13:38:04.016Z,98850.23
2023-05-07T13:40:30.481Z,98845.05
2023-05-07T13:42:59.268Z,98845.69
2023-05-07T13:45:25.700Z,98850.75
2023-05-07T13:47:53.072Z,98850.61
2023-05-07T13:50:19.646Z,98855.17
2023-05-07T13:52:47.110Z,98852.27
2023-05-07T13:55:13.813Z,98855.81
2023-05-07T13:57:40.440Z,98858.17
2023-05-07T14:00:07.711Z,98855.52
2023-05-07T14:02:34.378Z,98854.46
2023-05-07T14:05:00.975Z,98855.91
2023-05-07T14:07:27.372Z,98852.45
2023-05-07T14:09:53.883Z,98858.33
2023-05-07T14:12:20.326Z,98862.44
2023-05-07T14:14:46.761Z,98857.85
2023-05-07T14:17:14.051Z,98864.29
2023-05-07T14:19:40.884Z,98866.74
2023-05-07T14:22:07.452Z,98866.75
2023-05-07T14:24:38.657Z,98870.11
2023-05-07T14:27:05.573Z,98871.23
2023-05-07T14:29:32.136Z,98875.96
2023-05-07T14:31:58.586Z,98876.80
2023-05-07T14:34:25.112Z,98884.60
2023-05-07T14:36:51.504Z,98883.60
2023-05-07T14:39:17.939Z,98888.31
2023-05-07T14:41:44.418Z,98885.46
2023-05-07T14:44:10.835Z,98891.16
2023-05-07T14:46:37.554Z,98895.95
2023-05-07T14:49:04.320Z,98894.78
2023-05-07T14:51:30.880Z,98900.80
2023-05-07T14:53:57.714Z,98909.36
2023-05-07T14:56:24.291Z,98908.13
2023-05-07T14:58:51.132Z,98907.95
2023-05-07T15:01:17.776Z,98907.79
2023-05-07T15:03:44.543Z,98916.11
2023-05-07T15:06:11.080Z,98915.52
2023-05-07T15:08:37.637Z,98915.89
2023-05-07T15:11:04.126Z,98918.16
2023-05-07T15:13:30.606Z,98921.67
2023-05-07T15:15:57.275Z,98927.06
2023-05-07T15:18:24.783Z,98930.27
2023-05-07T15:20:51.310Z,98928.31
2023-05-07T15:23:17.867Z,98928.98
2023-05-07T15:25:44.281Z,98920.52
2023-05-07T15:28:10.733Z,98926.69
2023-05-07T15:30:37.212Z,98931.36
2023-05-07T15:33:03.813Z,98932.33
2023-05-07T15:35:30.433Z,98930.79
2023-05-07T15:37:56.862Z,98925.59
2023-05-07T15:40:23.512Z,98931.39
2023-05-07T15:42:50.319Z,98933.70
2023-05-07T15:45:16.903Z,98933.25
2023-05-07T15:47:43.375Z,98934.55
2023-05-07T15:50:10.606Z,98934.48
2023-05-07T15:52:37.115Z,98935.64
2023-05-07T15:55:03.796Z,98935.77
2023-05-07T15:57:30.529Z,98934.52
2023-05-07T15:59:57.052Z,98935.83
2023-05-07T16:02:23.869Z,98933.47
2023-05-07T16:04:50.599Z,98936.11
2023-05-07T16:07:17.273Z,98937.02
2023-05-07T16:09:43.681Z,98939.73
2023-05-07T16:12:10.060Z,98942.67
2023-05-07T16:14:36.487Z,98943.39
2023-05-07T16:17:02.975Z,98946.01
2023-05-07T16:19:32.380Z,98949.11
2023-05-07T16:21:58.826Z,98950.83
2023-05-07T16:24:25.285Z,98949.34
2023-05-07T16:26:51.741Z,98954.20
2023-05-07T16:29:18.199Z,98953.69
2023-05-07T16:31:44.738Z,98951.30
2023-05-07T16:34:11.208Z,98953.41
2023-05-07T16:36:37.634Z,98954.95
2023-05-07T16:39:04.133Z,98958.27
2023-05-07T16:41:30.579Z,98958.34
2023-05-07T16:43:57.017Z,98954.77
2023-05-07T16:46:23.537Z,98959.55
2023-05-07T16:48:50.273Z,98961.67
2023-05-07T16:51:16.813Z,98963.59
2023-05-07T16:53:43.242Z,98967.39
2023-05-07T16:56:09.697Z,98965.65
2023-05-07T16:58:36.246Z,98965.96
2023-05-07T17:01:03.092Z,98966.09
2023-05-07T17:03:29.897Z,98968.80
2023-05-07T17:05:56.614Z,98966.90
2023-05-07T17:08:23.031Z,98966.21
2023-05-07T17:10:49.579Z,98966.39
2023-05-07T17:13:16.074Z,98973.63
2023-05-07T17:15:42.821Z,98972.44
2023-05-07T17:18:09.364Z,98974.89
2023-05-07T17:20:35.978Z,98980.97
2023-05-07T17:23:02.529Z,98984.25
2023-05-07T17:25:28.947Z,98986.32
2023-05-07T17:27:55.436Z,98990.63
2023-05-07T17:30:22.027Z,98992.08
2023-05-07T17:32:48.527Z,98984.02
2023-05-07T17:35:15.578Z,98990.42
2023-05-07T17:37:42.011Z,98992.71
2023-05-07T17:40:09.114Z,98997.60
2023-05-07T17:42:35.728Z,99005.27
2023-05-07T17:45:02.262Z,99008.33
2023-05-07T17:47:28.766Z,99004.83
2023-05-07T17:49:55.443Z,99004.54
2023-05-07T17:52:22.007Z,99012.59
2023-05-07T17:54:48.411Z,99012.44
2023-05-07T17:57:14.990Z,99017.08
2023-05-07T17:59:41.446Z,99023.48
2023-05-07T18:02:07.985Z,99029.88
2023-05-07T18:04:34.629Z,99027.68
2023-05-07T18:07:01.158Z,99027.69
2023-05-07T18:09:27.653Z,99027.58
2023-05-07T18:11:54.473Z,99033.42
2023-05-07T18:14:20.905Z,99032.05
2023-05-07T18:16:47.472Z,99039.59
2023-05-07T18:19:14.059Z,99050.44
2023-05-07T18:21:40.591Z,99055.80
2023-05-07T18:24:07.957Z,99050.52
2023-05-07T18:26:34.503Z,99055.34
2023-05-07T18:29:00.893Z,99054.36
2023-05-07T18:31:27.355Z,99058.61
2023-05-07T18:33:54.987Z,99056.83
2023-05-07T18:36:22.127Z,99062.08
2023-05-07T18:38:48.663Z,99061.28
2023-05-07T18:41:15.277Z,99063.75
2023-05-07T18:43:42.435Z,99061.34
2023-05-07T18:46:08.936Z,99055.16
2023-05-07T18:48:35.785Z,99066.85
2023-05-07T18:51:03.553Z,99063.26
2023-05-07T18:53:29.981Z,99062.23
2023-05-07T18:55:56.460Z,99062.40
2023-05-07T18:58:23.354Z,99058.79
2023-05-07T19:00:50.427Z,99064.87
2023-05-07T19:03:17.246Z,99066.46
2023-05-07T19:05:44.994Z,99062.36
2023-05-07T19:08:11.616Z,99060.30
2023-05-07T19:10:39.014Z,99062.70
2023-05-07T19:13:06.154Z,99065.52
2023-05-07T19:15:32.824Z,99068.42
2023-05-07T19:17:59.489Z,99070.67
2023-05-07T19:20:26.039Z,99069.30
2023-05-07T19:22:52.465Z,99067.75
2023-05-07T19:25:18.995Z,99071.53
2023-05-07T19:27:45.596Z,99071.90
2023-05-07T19:30:12.429Z,99075.40
2023-05-07T19:32:39.230Z,99074.64
2023-05-07T19:35:06.268Z,99077.84
2023-05-07T19:37:32.736Z,99080.56
2023-05-07T19:39:59.354Z,99079.84
2023-05-07T19:42:25.796Z,99081.98
2023-05-07T19:44:52.184Z,99084.48
2023-05-07T19:47:18.779Z,99087.00
2023-05-07T19:49:45.265Z,99088.92
2023-05-07T19:52:11.824Z,99091.38
2023-05-07T19:54:38.282Z,99089.17
2023-05-07T19:57:04.735Z,99086.78
2023-05-07T19:59:31.180Z,99088.17
2023-05-07T20:01:57.716Z,99090.23
2023-05-07T20:04:24.615Z,99089.38
2023-05-07T20:06:51.063Z,99095.04
2023-05-07T20:09:17.504Z,99090.05
2023-05-07T20:11:43.919Z,99086.25
2023-05-07T20:14:10.345Z,99083.83
2023-05-07T20:16:37.000Z,99085.70
2023-05-07T20:19:03.727Z,99090.98
2023-05-07T20:21:30.503Z,99091.49
2023-05-07T20:23:57.029Z,99094.21
2023-05-07T20:26:23.919Z,99095.28
2023-05-07T20:28:50.383Z,99096.98
2023-05-07T20:31:16.896Z,99096.10
2023-05-07T20:33:43.531Z,99101.44
2023-05-07T20:36:10.073Z,99100.55
2023-05-07T20:38:36.724Z,99101.03
2023-05-07T20:41:11.235Z,99097.20
2023-05-07T20:43:38.221Z,99101.13
2023-05-07T20:46:05.492Z,99098.86
2023-05-07T20:48:32.132Z,99099.69
2023-05-07T20:50:59.522Z,99106.91
2023-05-07T20:53:28.703Z,99109.29
2023-05-07T20:55:55.436Z,99111.20
2023-05-07T20:58:22.852Z,99108.25
2023-05-07T21:00:49.287Z,99108.38
2023-05-07T21:03:16.075Z,99113.85
2023-05-07T21:05:42.656Z,99117.65
2023-05-07T21:08:09.317Z,99121.95
2023-05-07T21:10:35.862Z,99120.45
2023-05-07T21:13:02.440Z,99125.98
2023-05-07T21:15:28.969Z,99127.66
2023-05-07T21:17:55.524Z,99127.80
2023-05-07T21:20:22.020Z,99130.90
2023-05-07T21:22:48.722Z,99132.98
2023-05-07T21:25:15.202Z,99135.09
2023-05-07T21:27:41.675Z,99139.41
2023-05-07T21:30:08.915Z,99137.05
2023-05-07T21:32:35.569Z,99136.41
2023-05-07T21:35:02.057Z,99137.69
2023-05-07T21:37:28.470Z,99138.75
2023-05-07T21:39:55.060Z,99141.36
2023-05-07T21:42:23.207Z,99142.59
2023-05-07T21:44:50.007Z,99148.45
2023-05-07T21:47:16.927Z,99151.96
2023-05-07T21:49:43.644Z,99147.70
2023-05-07T21:52:14.727Z,99147.73
2023-05-07T21:54:41.991Z,99151.88
2023-05-07T21:57:08.416Z,99156.05
2023-05-07T21:59:34.873Z,99159.14
2023-05-07T22:02:01.391Z,99161.57
2023-05-07T22:04:28.174Z,99160.05
2023-05-07T22:06:55.244Z,99160.05
2023-05-07T22:09:21.757Z,99158.17
2023-05-07T22:11:48.464Z,99155.92
2023-05-07T22:14:14.888Z,99159.70
2023-05-07T22:16:41.346Z,99159.70
2023-05-07T22:19:07.982Z,99159.78
2023-05-07T22:21:34.419Z,99160.00
2023-05-07T22:24:01.048Z,99158.89
2023-05-07T22:26:27.597Z,99162.95
2023-05-07T22:28:54.079Z,99161.82
2023-05-07T22:31:20.535Z,99151.69
2023-05-07T22:33:47.142Z,99155.67
2023-05-07T22:36:13.583Z,99151.39
2023-05-07T22:38:40.026Z,99149.31
2023-05-07T22:41:06.516Z,99148.59
2023-05-07T22:43:32.979Z,99146.50
2023-05-07T22:46:00.848Z,99146.97
2023-05-07T22:48:28.800Z,99143.14
2023-05-07T22:50:55.562Z,99143.09
2023-05-07T22:53:22.158Z,99143.42
2023-05-07T22:55:48.675Z,99147.18
2023-05-07T22:58:15.155Z,99148.20
2023-05-07T23:00:41.622Z,99148.86
2023-05-07T23:03:08.516Z,99149.55
2023-05-07T23:05:35.193Z,99148.17
2023-05-07T23:08:01.757Z,99149.20
2023-05-07T23:10:28.258Z,99152.29
2023-05-07T23:12:54.767Z,99146.98
2023-05-07T23:15:21.300Z,99146.84
2023-05-07T23:17:47.963Z,99144.79
2023-05-07T23:20:15.563Z,99140.90
2023-05-07T23:22:42.051Z,99139.55
2023-05-07T23:25:09.133Z,99135.95
2023-05-07T23:27:35.630Z,99138.70
2023-05-07T23:30:02.612Z,99133.52
2023-05-07T23:32:31.081Z,99133.20
2023-05-07T23:34:57.664Z,99135.77
2023-05-07T23:37:24.290Z,99134.18
2023-05-07T23:39:54.148Z,99129.40
2023-05-07T23:42:20.775Z,99130.27
2023-05-07T23:44:48.426Z,99124.08
2023-05-07T23:47:15.076Z,99124.27
2023-05-07T23:49:41.753Z,99126.48
2023-05-07T23:52:08.191Z,99123.92
2023-05-07T23:54:34.738Z,99118.73
2023-05-07T23:57:01.165Z,99116.14
2023-05-07T23:59:28.286Z,99120.09
